< < Back
Terminal Aerodrome Forecast


Current Version              Previous Versions:   1  2  3  4  5  6  7  8  9  

Terminal Aerodrome Forecast

356
FTUS42 KGSP 210500
TAFAVL
TAF
KAVL 210524Z 2106/2206 00000KT P6SM SCT002 SCT170
     FM210800 31004KT 5SM BR SCT210
     FM211200 29005KT 1SM BR SCT250
     FM211400 29006KT P6SM SCT250
     FM211800 31011KT P6SM SCT045
     FM212200 32010G26KT P6SM SCT035=

Latest METAR

016
SAUS70 KWBC 210700 RRG
MTRAVL
METAR KAVL 210654Z AUTO 32005KT 10SM CLR 08/07 A3001 RMK AO2 SLP147
T00830072


USA.gov is the U.S. government's official web portal to all federal, state and local government web resources and services.